createdAt,value
2023-01-13T00:01:18.321Z,96.39
2023-01-13T00:04:20.775Z,96.27
2023-01-13T00:07:28.985Z,96.50
2023-01-13T00:10:31.446Z,96.60
2023-01-13T00:13:35.474Z,96.00
2023-01-13T00:16:43.161Z,96.59
2023-01-13T00:19:46.601Z,96.22
2023-01-13T00:22:49.217Z,95.86
2023-01-13T00:25:51.727Z,96.20
2023-01-13T00:28:59.262Z,96.06
2023-01-13T00:32:01.892Z,95.56
2023-01-13T00:35:04.797Z,95.43
2023-01-13T00:38:07.264Z,95.74
2023-01-13T00:41:18.414Z,95.62
2023-01-13T00:44:21.215Z,96.15
2023-01-13T00:47:26.338Z,95.69
2023-01-13T00:50:30.230Z,96.03
2023-01-13T00:53:40.684Z,95.22
2023-01-13T00:56:43.221Z,95.37
2023-01-13T00:59:52.601Z,95.32
2023-01-13T01:02:55.266Z,94.78
2023-01-13T01:06:28.300Z,95.37
2023-01-13T01:09:33.577Z,94.59
2023-01-13T01:12:37.581Z,94.71
2023-01-13T01:15:45.258Z,94.58
2023-01-13T01:19:02.991Z,94.72
2023-01-13T01:22:05.628Z,95.01
2023-01-13T01:25:08.534Z,94.69
2023-01-13T01:28:11.228Z,94.74
2023-01-13T01:31:26.814Z,94.56
2023-01-13T01:34:31.383Z,94.30
2023-01-13T01:37:33.879Z,94.92
2023-01-13T01:40:36.433Z,94.97
2023-01-13T01:44:08.221Z,94.99
2023-01-13T01:47:15.287Z,95.13
2023-01-13T01:50:23.813Z,95.05
2023-01-13T01:53:28.416Z,95.09
2023-01-13T01:56:37.715Z,94.92
2023-01-13T01:59:40.633Z,95.64
2023-01-13T02:02:46.483Z,94.40
2023-01-13T02:05:49.188Z,95.20
2023-01-13T02:08:53.082Z,94.80
2023-01-13T02:12:22.266Z,94.64
2023-01-13T02:15:30.882Z,94.86
2023-01-13T02:18:48.321Z,94.99
2023-01-13T02:22:11.334Z,95.17
2023-01-13T02:25:31.702Z,94.85
2023-01-13T02:29:34.905Z,94.16
2023-01-13T02:32:43.930Z,94.01
2023-01-13T02:36:05.767Z,93.43
2023-01-13T02:39:36.359Z,93.31
2023-01-13T02:43:09.478Z,93.92
2023-01-13T02:46:20.402Z,94.38
2023-01-13T02:49:37.595Z,94.38
2023-01-13T02:52:52.367Z,94.08
2023-01-13T02:55:58.731Z,94.45
2023-01-13T02:59:01.922Z,94.05
2023-01-13T03:02:05.450Z,93.96
2023-01-13T03:05:08.419Z,93.91
2023-01-13T03:08:47.776Z,93.34
2023-01-13T03:12:02.915Z,93.35
2023-01-13T03:15:37.081Z,93.14
2023-01-13T03:19:06.281Z,93.45
2023-01-13T03:22:33.991Z,93.88
2023-01-13T03:26:03.991Z,93.39
2023-01-13T03:29:13.464Z,93.06
2023-01-13T03:32:30.135Z,94.06
2023-01-13T03:35:40.603Z,94.09
2023-01-13T03:38:51.625Z,93.22
2023-01-13T03:42:05.820Z,93.17
2023-01-13T03:45:18.375Z,93.31
2023-01-13T03:48:22.993Z,93.50
2023-01-13T03:51:36.943Z,93.46
2023-01-13T03:54:55.307Z,93.32
2023-01-13T03:58:14.414Z,93.99
2023-01-13T04:01:47.235Z,94.07
2023-01-13T04:04:58.349Z,93.89
2023-01-13T04:08:22.367Z,94.08
2023-01-13T04:11:39.872Z,93.18
2023-01-13T04:14:45.550Z,93.63
2023-01-13T04:17:51.364Z,93.25
2023-01-13T04:21:05.924Z,93.09
2023-01-13T04:24:14.624Z,93.67
2023-01-13T04:27:19.876Z,93.17
2023-01-13T04:30:22.491Z,93.58
2023-01-13T04:33:25.073Z,93.71
2023-01-13T04:36:27.817Z,93.61
2023-01-13T04:39:30.375Z,93.52
2023-01-13T04:42:32.944Z,93.40
2023-01-13T04:45:43.233Z,93.03
2023-01-13T04:48:48.600Z,93.67
2023-01-13T04:51:51.164Z,93.97
2023-01-13T04:54:53.752Z,93.68
2023-01-13T04:58:16.591Z,93.63
2023-01-13T05:01:19.359Z,94.11
2023-01-13T05:04:24.843Z,94.39
2023-01-13T05:07:30.025Z,94.50
2023-01-13T05:10:32.770Z,94.50
2023-01-13T05:13:53.825Z,94.72
2023-01-13T05:17:05.410Z,95.12
2023-01-13T05:20:11.086Z,95.43
2023-01-13T05:23:32.288Z,94.83
2023-01-13T05:26:34.811Z,94.88
2023-01-13T05:29:37.339Z,94.39
2023-01-13T05:32:39.909Z,94.44
2023-01-13T05:35:46.764Z,94.38
2023-01-13T05:38:52.235Z,93.78
2023-01-13T05:42:15.971Z,93.90
2023-01-13T05:45:21.545Z,93.81
2023-01-13T05:48:29.838Z,93.88
2023-01-13T05:51:35.302Z,94.87
2023-01-13T05:54:37.926Z,94.62
2023-01-13T05:57:41.650Z,95.20
2023-01-13T06:00:44.725Z,95.27
2023-01-13T06:03:49.635Z,95.53
2023-01-13T06:06:52.211Z,95.09
2023-01-13T06:09:54.800Z,95.26
2023-01-13T06:12:57.731Z,94.92
2023-01-13T06:16:09.166Z,95.15
2023-01-13T06:19:13.338Z,95.72
2023-01-13T06:22:18.224Z,95.96
2023-01-13T06:25:50.744Z,95.40
2023-01-13T06:28:56.480Z,96.23
2023-01-13T06:32:00.192Z,96.01
2023-01-13T06:35:08.449Z,96.03
2023-01-13T06:38:13.022Z,96.17
2023-01-13T06:41:16.233Z,96.47
2023-01-13T06:44:20.034Z,95.53
2023-01-13T06:47:23.908Z,95.22
2023-01-13T06:50:28.462Z,95.26
2023-01-13T06:53:31.820Z,95.24
2023-01-13T06:56:34.851Z,95.72
2023-01-13T06:59:37.475Z,95.85
2023-01-13T07:02:40.286Z,95.30
2023-01-13T07:05:44.384Z,95.30
2023-01-13T07:08:50.315Z,95.74
2023-01-13T07:11:56.271Z,95.39
2023-01-13T07:15:17.474Z,95.17
2023-01-13T07:18:20.002Z,94.90
2023-01-13T07:21:22.676Z,95.36
2023-01-13T07:24:26.517Z,94.99
2023-01-13T07:27:37.701Z,95.18
2023-01-13T07:30:40.300Z,95.38
2023-01-13T07:33:43.122Z,95.31
2023-01-13T07:36:46.011Z,95.47
2023-01-13T07:39:50.363Z,95.51
2023-01-13T07:43:14.699Z,96.00
2023-01-13T07:46:20.224Z,95.29
2023-01-13T07:49:22.771Z,94.99
2023-01-13T07:52:28.319Z,94.71
2023-01-13T07:55:30.953Z,95.16
2023-01-13T07:58:35.908Z,94.45
2023-01-13T08:01:38.868Z,94.53
2023-01-13T08:04:47.208Z,94.05
2023-01-13T08:08:02.711Z,94.48
2023-01-13T08:11:08.560Z,93.62
2023-01-13T08:14:11.093Z,93.64
2023-01-13T08:17:14.064Z,93.54
2023-01-13T08:20:19.806Z,92.34
2023-01-13T08:23:23.367Z,92.30
2023-01-13T08:26:26.120Z,92.29
2023-01-13T08:29:28.784Z,91.50
2023-01-13T08:32:34.875Z,92.12
2023-01-13T08:35:41.278Z,92.08
2023-01-13T09:07:47.664Z,90.45
2023-01-13T09:10:53.709Z,89.56
2023-01-13T09:13:57.666Z,90.32
2023-01-13T09:17:01.171Z,90.28
2023-01-13T09:20:08.277Z,90.31
2023-01-13T09:23:15.888Z,89.45
2023-01-13T09:26:23.213Z,88.98
2023-01-13T09:29:37.170Z,89.02
2023-01-13T09:32:42.648Z,88.64
2023-01-13T09:35:50.170Z,87.52
2023-01-13T09:38:58.046Z,87.06
2023-01-13T09:43:01.511Z,85.62
2023-01-13T09:46:48.030Z,85.21
2023-01-13T09:49:52.613Z,85.65
2023-01-13T09:52:56.224Z,83.94
2023-01-13T09:56:01.942Z,83.72
2023-01-13T09:59:05.694Z,83.77
2023-01-13T10:02:41.600Z,83.75
2023-01-13T10:05:52.854Z,83.50
2023-01-13T10:08:58.200Z,84.29
2023-01-13T10:12:21.348Z,83.52
2023-01-13T10:15:26.863Z,81.64
2023-01-13T10:18:38.662Z,83.50
2023-01-13T10:21:46.020Z,84.19
2023-01-13T10:25:10.274Z,83.94
2023-01-13T10:28:18.473Z,82.23
2023-01-13T10:31:28.168Z,81.89
2023-01-13T10:34:49.703Z,81.95
2023-01-13T10:37:58.662Z,83.20
2023-01-13T10:41:05.844Z,82.33
2023-01-13T10:44:18.357Z,82.77
2023-01-13T10:47:30.652Z,82.82
2023-01-13T10:50:37.819Z,82.06
2023-01-13T10:54:01.815Z,81.60
2023-01-13T10:57:24.180Z,80.16
2023-01-13T11:00:32.033Z,81.37
2023-01-13T11:03:42.735Z,81.82
2023-01-13T11:06:49.579Z,81.87
2023-01-13T11:10:09.384Z,81.02
2023-01-13T11:13:20.168Z,82.44
2023-01-13T11:16:26.456Z,81.18
2023-01-13T11:19:32.832Z,81.10
2023-01-13T11:22:46.939Z,81.44
2023-01-13T11:26:03.225Z,81.20
2023-01-13T11:29:22.080Z,82.12
2023-01-13T11:32:29.229Z,81.15
2023-01-13T11:35:39.035Z,79.29
2023-01-13T11:38:53.098Z,79.54
2023-01-13T11:42:23.328Z,80.81
2023-01-13T11:45:52.585Z,81.06
2023-01-13T11:48:59.407Z,82.68
2023-01-13T11:52:33.694Z,84.03
2023-01-13T11:55:51.371Z,83.91
2023-01-13T11:58:59.243Z,84.60
2023-01-13T12:02:06.913Z,85.03
2023-01-13T12:05:41.416Z,84.79
2023-01-13T12:08:54.256Z,85.52
2023-01-13T12:12:33.364Z,85.75
2023-01-13T12:15:59.702Z,85.93
2023-01-13T12:19:08.665Z,85.65
2023-01-13T12:22:21.951Z,85.83
2023-01-13T12:25:41.400Z,85.43
2023-01-13T12:28:54.560Z,85.40
2023-01-13T12:32:04.145Z,85.29
2023-01-13T12:35:23.601Z,84.25
2023-01-13T12:38:46.447Z,84.38
2023-01-13T12:42:28.071Z,83.57
2023-01-13T12:45:34.138Z,82.90
2023-01-13T12:48:52.389Z,83.14
2023-01-13T12:51:58.529Z,83.98
2023-01-13T12:55:05.125Z,83.48
2023-01-13T12:58:09.135Z,83.42
2023-01-13T13:01:17.558Z,83.94
2023-01-13T13:04:48.690Z,82.24
2023-01-13T13:08:17.301Z,81.07
2023-01-13T13:12:00.517Z,80.81
2023-01-13T13:15:07.569Z,83.42
2023-01-13T13:18:18.742Z,83.67
2023-01-13T13:21:24.513Z,84.00
2023-01-13T13:24:28.586Z,84.33
2023-01-13T13:27:33.458Z,84.57
2023-01-13T13:30:40.447Z,84.42
2023-01-13T13:33:55.965Z,84.42
2023-01-13T13:37:12.543Z,84.23
2023-01-13T13:40:36.485Z,84.87
2023-01-13T13:44:01.774Z,85.54
2023-01-13T13:47:07.570Z,85.91
2023-01-13T13:50:22.275Z,86.06
2023-01-13T13:53:31.173Z,85.55
2023-01-13T13:56:41.968Z,85.30
2023-01-13T13:59:51.357Z,85.60
2023-01-13T14:03:05.874Z,85.67
2023-01-13T14:06:22.823Z,85.64
2023-01-13T14:09:30.471Z,85.73
2023-01-13T14:12:39.015Z,86.18
2023-01-13T14:15:44.556Z,85.79
2023-01-13T14:18:52.173Z,85.47
2023-01-13T14:22:02.203Z,85.58
2023-01-13T14:25:31.465Z,85.78
2023-01-13T14:28:43.445Z,85.87
2023-01-13T14:31:56.466Z,85.47
2023-01-13T14:35:07.270Z,85.95
2023-01-13T14:38:20.284Z,85.95
2023-01-13T14:41:32.599Z,85.97
2023-01-13T14:44:48.696Z,86.57
2023-01-13T14:48:03.441Z,86.89
2023-01-13T14:51:12.541Z,86.71
2023-01-13T14:55:02.039Z,87.09
2023-01-13T14:58:30.345Z,87.59
2023-01-13T15:01:57.631Z,87.45
2023-01-13T15:05:31.671Z,87.91
2023-01-13T15:09:00.101Z,87.93
2023-01-13T15:12:56.553Z,88.65
2023-01-13T15:16:38.401Z,88.67
2023-01-13T15:20:10.237Z,88.73
2023-01-13T15:23:39.047Z,89.03
2023-01-13T15:27:27.831Z,89.21
2023-01-13T15:30:53.043Z,89.19
2023-01-13T15:34:30.386Z,89.94
2023-01-13T15:38:24.284Z,89.76
2023-01-13T15:42:15.875Z,89.85
2023-01-13T15:46:09.375Z,89.78
2023-01-13T15:49:49.597Z,89.58
2023-01-13T15:53:39.890Z,90.15
2023-01-13T15:57:25.949Z,90.05
2023-01-13T16:01:09.122Z,90.23
2023-01-13T16:04:42.000Z,90.40
2023-01-13T16:08:26.948Z,90.84
2023-01-13T16:12:11.453Z,91.13
2023-01-13T16:16:27.491Z,90.92
2023-01-13T16:20:19.842Z,91.20
2023-01-13T16:24:10.920Z,91.34
2023-01-13T16:28:40.550Z,90.89
2023-01-13T16:36:42.292Z,91.00
2023-01-13T16:40:48.175Z,90.85
2023-01-13T16:49:20.800Z,90.85
2023-01-13T16:57:25.253Z,91.19
2023-01-13T17:02:11.531Z,91.29
2023-01-13T17:06:23.531Z,91.41
2023-01-13T17:10:26.669Z,91.22
2023-01-13T17:14:31.746Z,90.98
2023-01-13T17:22:21.745Z,90.84
2023-01-13T17:34:26.189Z,91.33
2023-01-13T17:38:26.739Z,91.94
2023-01-13T17:43:08.509Z,91.63
2023-01-13T18:13:19.530Z,92.73
2023-01-13T18:22:03.107Z,92.99
2023-01-13T18:30:09.208Z,93.21
2023-01-13T18:38:49.149Z,93.93
2023-01-13T18:42:48.563Z,94.14
2023-01-13T18:58:34.050Z,93.44
2023-01-13T19:07:21.488Z,93.77
2023-01-13T19:16:12.265Z,93.17
2023-01-13T19:24:20.735Z,93.38
2023-01-13T19:28:11.452Z,93.59
2023-01-13T19:32:23.479Z,93.33
2023-01-13T19:36:25.885Z,93.33
2023-01-13T19:41:07.692Z,93.92
2023-01-13T19:58:26.892Z,93.47
2023-01-13T20:28:41.338Z,93.58
2023-01-13T20:50:12.694Z,93.90
2023-01-13T20:58:43.328Z,94.71
2023-01-13T21:07:17.427Z,94.21
2023-01-13T21:11:34.437Z,94.19
2023-01-13T21:19:38.079Z,94.03
2023-01-13T21:31:38.647Z,94.50
2023-01-13T21:48:27.365Z,94.00
2023-01-13T21:57:12.367Z,93.18
2023-01-13T22:01:34.893Z,93.31
2023-01-13T22:22:23.624Z,94.56
2023-01-13T22:26:28.152Z,94.67
2023-01-13T22:31:05.087Z,94.70
2023-01-13T22:35:08.033Z,94.94
2023-01-13T22:43:46.451Z,95.46
2023-01-13T22:52:24.327Z,95.52
2023-01-13T22:56:37.661Z,96.16
2023-01-13T23:00:44.146Z,95.56
2023-01-13T23:04:31.324Z,95.85
2023-01-13T23:12:50.086Z,96.38
2023-01-13T23:21:13.315Z,95.73
2023-01-13T23:25:13.268Z,96.16
2023-01-13T23:38:16.886Z,96.11
2023-01-13T23:42:25.640Z,96.68
2023-01-13T23:46:34.613Z,96.43
2023-01-13T23:55:07.849Z,96.42
